createdAt,value
2019-02-28T00:01:35.600Z,18.67
2019-02-28T00:04:16.658Z,24.50
2019-02-28T00:06:57.636Z,20.17
2019-02-28T00:09:38.302Z,20.43
2019-02-28T00:12:19.710Z,22.80
2019-02-28T00:18:15.253Z,24.27
2019-02-28T00:20:55.391Z,22.23
2019-02-28T00:23:34.995Z,20.50
2019-02-28T00:26:04.435Z,21.60
2019-02-28T00:28:52.864Z,23.30
2019-02-28T00:31:33.789Z,21.67
2019-02-28T00:34:15.049Z,24.30
2019-02-28T00:36:56.570Z,22.33
2019-02-28T00:39:37.377Z,22.07
2019-02-28T00:42:19.000Z,23.47
2019-02-28T00:45:02.375Z,22.57
2019-02-28T00:47:42.838Z,24.00
2019-02-28T00:50:23.743Z,24.00
2019-02-28T00:56:18.310Z,23.70
2019-02-28T00:59:00.453Z,24.17
2019-02-28T01:01:43.138Z,24.17
2019-02-28T01:04:24.128Z,23.67
2019-02-28T01:07:05.336Z,26.33
2019-02-28T01:09:46.819Z,26.20
2019-02-28T01:12:28.375Z,22.80
2019-02-28T01:15:10.058Z,24.97
2019-02-28T01:17:50.394Z,25.60
2019-02-28T01:20:38.840Z,24.97
2019-02-28T01:23:20.873Z,25.20
2019-02-28T01:26:01.968Z,24.13
2019-02-28T01:28:43.213Z,24.50
2019-02-28T01:31:23.797Z,25.60
2019-02-28T01:34:04.469Z,25.43
2019-02-28T01:36:45.894Z,23.93
2019-02-28T01:39:29.825Z,23.50
2019-02-28T01:42:10.358Z,23.23
2019-02-28T01:44:50.060Z,22.00
2019-02-28T01:47:38.536Z,23.07
2019-02-28T01:50:19.982Z,23.97
2019-02-28T01:53:00.620Z,22.80
2019-02-28T01:55:41.558Z,25.40
2019-02-28T01:58:10.985Z,23.53
2019-02-28T02:00:40.481Z,28.17
2019-02-28T02:03:28.965Z,23.90
2019-02-28T02:06:17.706Z,25.80
2019-02-28T02:08:58.928Z,24.77
2019-02-28T02:11:40.429Z,26.57
2019-02-28T02:14:22.611Z,25.93
2019-02-28T02:17:03.983Z,30.03
2019-02-28T02:19:45.407Z,25.47
2019-02-28T02:22:26.217Z,26.93
2019-02-28T02:25:07.539Z,25.13
2019-02-28T02:27:52.965Z,26.20
2019-02-28T02:30:31.570Z,27.23
2019-02-28T02:33:14.603Z,25.77
2019-02-28T02:35:55.940Z,27.70
2019-02-28T02:38:41.588Z,27.10
2019-02-28T02:41:20.378Z,26.43
2019-02-28T02:44:01.836Z,25.17
2019-02-28T02:46:43.112Z,26.17
2019-02-28T02:49:24.502Z,28.23
2019-02-28T02:52:05.281Z,29.83
2019-02-28T02:54:46.209Z,28.00
2019-02-28T02:57:27.456Z,28.93
2019-02-28T03:00:13.311Z,26.90
2019-02-28T03:02:51.097Z,30.63
2019-02-28T03:05:35.693Z,29.67
2019-02-28T03:08:15.188Z,30.13
2019-02-28T03:10:55.723Z,28.03
2019-02-28T03:13:41.845Z,30.77
2019-02-28T03:16:17.847Z,27.07
2019-02-28T03:18:59.424Z,27.23
2019-02-28T03:21:40.727Z,29.63
2019-02-28T03:24:21.474Z,28.90
2019-02-28T03:27:02.875Z,29.63
2019-02-28T03:29:32.309Z,28.87
2019-02-28T03:32:20.785Z,33.00
2019-02-28T03:35:02.440Z,27.03
2019-02-28T03:37:54.435Z,30.07
2019-02-28T03:40:39.905Z,26.80
2019-02-28T03:43:18.563Z,29.93
2019-02-28T03:45:59.492Z,34.10
2019-02-28T03:48:40.834Z,28.60
2019-02-28T03:51:21.567Z,28.00
2019-02-28T03:54:02.745Z,29.87
2019-02-28T03:56:42.309Z,29.53
2019-02-28T03:59:23.527Z,28.47
2019-02-28T04:02:04.439Z,32.00
2019-02-28T04:04:49.961Z,28.87
2019-02-28T04:07:28.184Z,29.70
2019-02-28T04:10:09.874Z,32.97
2019-02-28T04:12:51.140Z,32.70
2019-02-28T04:15:32.276Z,31.63
2019-02-28T04:18:07.048Z,29.90
2019-02-28T04:20:51.974Z,31.00
2019-02-28T04:23:35.951Z,31.33
2019-02-28T04:26:15.294Z,32.17
2019-02-28T04:28:56.728Z,32.83
2019-02-28T04:31:38.034Z,32.03
2019-02-28T04:34:19.290Z,32.57
2019-02-28T04:37:00.819Z,34.30
2019-02-28T04:39:40.505Z,34.77
2019-02-28T04:42:21.938Z,34.23
2019-02-28T04:45:03.045Z,35.37
2019-02-28T04:47:44.089Z,34.30
2019-02-28T04:50:31.308Z,33.37
2019-02-28T04:53:08.025Z,36.83
2019-02-28T04:55:48.713Z,33.83
2019-02-28T04:58:18.235Z,33.43
2019-02-28T05:00:47.619Z,36.00
2019-02-28T05:03:36.110Z,34.93
2019-02-28T05:06:24.597Z,40.77
2019-02-28T05:09:06.117Z,35.47
2019-02-28T05:11:47.388Z,37.27
2019-02-28T05:14:28.881Z,34.43
2019-02-28T05:17:10.275Z,36.70
2019-02-28T05:19:51.141Z,31.73
2019-02-28T05:22:32.229Z,36.63
2019-02-28T05:25:17.580Z,33.87
2019-02-28T05:27:57.017Z,34.43
2019-02-28T05:30:37.664Z,35.60
2019-02-28T05:33:18.202Z,38.87
2019-02-28T05:36:00.289Z,35.83
2019-02-28T05:38:41.847Z,35.90
2019-02-28T05:41:23.362Z,38.07
2019-02-28T05:44:06.311Z,35.70
2019-02-28T05:46:47.449Z,35.23
2019-02-28T05:49:28.024Z,39.07
2019-02-28T05:52:08.881Z,39.27
2019-02-28T05:54:51.353Z,40.07
2019-02-28T05:57:32.645Z,42.10
2019-02-28T06:00:15.355Z,44.80
2019-02-28T06:02:59.033Z,45.30
2019-02-28T06:05:39.080Z,43.90
2019-02-28T06:08:20.318Z,43.80
2019-02-28T06:11:01.533Z,41.97
2019-02-28T06:13:42.464Z,45.27
2019-02-28T06:16:24.032Z,40.97
2019-02-28T06:19:08.373Z,41.53
2019-02-28T06:21:48.635Z,43.73
2019-02-28T06:24:29.794Z,40.57
2019-02-28T06:27:11.263Z,42.70
2019-02-28T06:29:51.863Z,43.70
2019-02-28T06:32:32.489Z,42.47
2019-02-28T06:35:16.021Z,44.83
2019-02-28T06:37:55.885Z,41.97
2019-02-28T06:40:36.750Z,44.77
2019-02-28T06:43:18.821Z,44.03
2019-02-28T06:45:59.679Z,48.50
2019-02-28T06:48:40.825Z,48.23
2019-02-28T06:51:22.326Z,44.67
2019-02-28T06:54:04.461Z,44.00
2019-02-28T06:56:45.693Z,45.57
2019-02-28T06:59:25.303Z,39.83
2019-02-28T07:02:08.828Z,41.20
2019-02-28T07:04:50.479Z,39.50
2019-02-28T07:07:31.601Z,40.47
2019-02-28T07:10:13.310Z,41.47
2019-02-28T07:12:57.093Z,38.63
2019-02-28T07:15:38.094Z,37.00
2019-02-28T07:18:20.032Z,40.73
2019-02-28T07:21:00.819Z,36.63
2019-02-28T07:23:42.147Z,37.40
2019-02-28T07:26:23.583Z,37.50
2019-02-28T07:29:04.287Z,39.93
2019-02-28T07:31:45.582Z,39.17
2019-02-28T07:34:26.726Z,38.40
2019-02-28T07:37:08.008Z,40.10
2019-02-28T07:39:49.679Z,39.93
2019-02-28T07:42:33.744Z,35.33
2019-02-28T07:45:14.141Z,36.80
2019-02-28T07:47:55.660Z,39.17
2019-02-28T07:50:36.511Z,35.60
2019-02-28T07:53:18.020Z,38.27
2019-02-28T07:55:59.561Z,36.03
2019-02-28T07:58:41.089Z,37.07
2019-02-28T08:01:39.828Z,37.33
2019-02-28T08:04:20.483Z,33.63
2019-02-28T08:07:01.250Z,33.13
2019-02-28T08:09:42.533Z,35.33
2019-02-28T08:12:24.047Z,37.13
2019-02-28T08:15:05.538Z,34.40
2019-02-28T08:17:46.713Z,31.53
2019-02-28T08:20:30.731Z,33.00
2019-02-28T08:23:12.804Z,35.27
2019-02-28T08:25:54.197Z,33.97
2019-02-28T08:28:36.744Z,35.03
2019-02-28T08:31:24.039Z,35.73
2019-02-28T08:34:04.952Z,34.47
2019-02-28T08:36:46.952Z,32.27
2019-02-28T08:39:28.668Z,34.40
2019-02-28T08:42:10.063Z,32.33
2019-02-28T08:44:50.930Z,34.80
2019-02-28T08:47:32.447Z,31.70
2019-02-28T08:50:19.131Z,32.27
2019-02-28T08:52:56.208Z,34.67
2019-02-28T08:55:41.651Z,37.10
2019-02-28T08:58:21.993Z,33.53
2019-02-28T09:01:05.356Z,34.50
2019-02-28T09:03:46.189Z,33.63
2019-02-28T09:06:27.560Z,32.77
2019-02-28T09:09:16.148Z,33.13
2019-02-28T09:11:58.794Z,31.63
2019-02-28T09:14:39.738Z,33.70
2019-02-28T09:17:20.951Z,34.47
2019-02-28T09:20:02.283Z,34.17
2019-02-28T09:22:43.517Z,31.33
2019-02-28T09:25:15.150Z,31.23
2019-02-28T09:28:03.617Z,33.97
2019-02-28T09:30:52.146Z,32.30
2019-02-28T09:33:32.940Z,32.53
2019-02-28T09:36:20.226Z,34.40
2019-02-28T09:38:58.156Z,30.57
2019-02-28T09:41:40.399Z,31.40
2019-02-28T09:44:22.117Z,32.47
2019-02-28T09:47:03.635Z,31.07
2019-02-28T09:49:47.336Z,32.27
2019-02-28T09:52:27.196Z,28.87
2019-02-28T09:55:06.952Z,30.27
2019-02-28T09:57:57.448Z,30.27
2019-02-28T10:00:38.149Z,29.87
2019-02-28T10:03:19.727Z,28.23
2019-02-28T10:06:00.546Z,30.70
2019-02-28T10:08:41.189Z,29.90
2019-02-28T10:11:23.907Z,28.97
2019-02-28T10:14:04.769Z,26.40
2019-02-28T10:16:45.618Z,27.27
2019-02-28T10:19:25.160Z,27.53
2019-02-28T10:22:06.436Z,25.80
2019-02-28T10:24:47.154Z,26.23
2019-02-28T10:27:28.663Z,24.07
2019-02-28T10:30:09.499Z,26.30
2019-02-28T10:32:50.877Z,26.47
2019-02-28T10:35:33.528Z,24.77
2019-02-28T10:38:20.620Z,21.53
2019-02-28T10:41:01.867Z,21.67
2019-02-28T10:43:43.297Z,23.87
2019-02-28T10:46:13.351Z,23.20
2019-02-28T10:49:02.823Z,22.57
2019-02-28T10:51:44.668Z,23.67
2019-02-28T10:54:26.960Z,19.83
2019-02-28T10:57:08.496Z,20.60
2019-02-28T10:59:49.148Z,20.93
2019-02-28T11:02:30.491Z,19.20
2019-02-28T11:05:12.068Z,17.83
2019-02-28T11:07:52.745Z,20.10
2019-02-28T11:10:35.508Z,16.33
2019-02-28T11:13:23.398Z,16.00
2019-02-28T11:16:04.398Z,16.57
2019-02-28T11:18:45.945Z,18.07
2019-02-28T11:21:29.897Z,16.63
2019-02-28T11:24:09.163Z,16.27
2019-02-28T11:26:51.427Z,15.90
2019-02-28T11:29:35.141Z,16.40
2019-02-28T11:32:15.243Z,20.53
2019-02-28T11:34:56.311Z,23.30
2019-02-28T11:37:37.760Z,16.83
2019-02-28T11:40:18.902Z,17.57
2019-02-28T11:43:02.854Z,10.20
2019-02-28T11:45:43.737Z,8.57
2019-02-28T11:48:24.795Z,9.97
2019-02-28T11:51:05.965Z,8.67
2019-02-28T11:53:47.272Z,6.83
2019-02-28T11:56:29.459Z,5.57
2019-02-28T11:59:10.832Z,6.63
2019-02-28T12:05:05.305Z,8.53
2019-02-28T12:07:46.592Z,8.17
2019-02-28T12:10:28.408Z,7.80
2019-02-28T12:13:09.351Z,8.03
2019-02-28T12:15:50.818Z,7.03
2019-02-28T12:18:32.220Z,5.97
2019-02-28T12:21:13.372Z,7.17
2019-02-28T12:23:57.472Z,9.23
2019-02-28T12:26:37.161Z,5.90
2019-02-28T12:29:18.231Z,7.13
2019-02-28T12:31:59.513Z,6.70
2019-02-28T12:34:40.748Z,8.57
2019-02-28T12:37:22.092Z,8.27
2019-02-28T12:40:03.724Z,7.70
2019-02-28T12:42:45.338Z,6.87
2019-02-28T12:45:25.919Z,9.17
2019-02-28T12:48:06.491Z,7.53
2019-02-28T12:50:55.360Z,8.00
2019-02-28T12:53:36.902Z,7.63
2019-02-28T12:56:18.283Z,9.23
2019-02-28T12:58:59.341Z,6.40
2019-02-28T13:01:40.605Z,8.17
2019-02-28T13:04:22.131Z,5.47
2019-02-28T13:07:03.334Z,5.83
2019-02-28T13:09:44.881Z,7.57
2019-02-28T13:12:26.217Z,6.87
2019-02-28T13:14:55.828Z,5.80
2019-02-28T13:17:44.338Z,6.80
2019-02-28T13:20:32.163Z,6.97
2019-02-28T13:23:10.430Z,7.30
2019-02-28T13:25:51.704Z,5.27
2019-02-28T13:28:33.243Z,8.43
2019-02-28T13:31:14.813Z,5.63
2019-02-28T13:33:56.126Z,5.87
2019-02-28T13:36:38.682Z,6.70
2019-02-28T13:39:19.476Z,6.80
2019-02-28T13:42:03.240Z,7.23
2019-02-28T13:44:44.021Z,6.97
2019-02-28T13:47:25.521Z,6.20
2019-02-28T13:50:07.098Z,6.73
2019-02-28T13:52:48.247Z,6.13
2019-02-28T13:55:29.519Z,5.50
2019-02-28T13:58:11.023Z,6.90
2019-02-28T14:00:52.235Z,6.50
2019-02-28T14:03:32.926Z,6.70
2019-02-28T14:06:18.876Z,7.77
2019-02-28T14:08:46.114Z,6.90
2019-02-28T14:14:32.723Z,7.27
2019-02-28T14:17:21.173Z,8.60
2019-02-28T14:20:09.683Z,7.43
2019-02-28T14:22:49.361Z,9.47
2019-02-28T14:25:30.915Z,6.87
2019-02-28T14:28:12.005Z,9.97
2019-02-28T14:30:57.583Z,10.70
2019-02-28T14:33:39.069Z,7.77
2019-02-28T14:36:20.334Z,7.83
2019-02-28T14:39:01.065Z,10.03
2019-02-28T14:41:42.780Z,9.47
2019-02-28T14:44:31.800Z,8.63
2019-02-28T14:47:13.172Z,7.97
2019-02-28T14:49:53.982Z,9.87
2019-02-28T14:52:35.740Z,8.53
2019-02-28T14:55:18.181Z,8.43
2019-02-28T14:57:59.003Z,8.03
2019-02-28T15:00:42.442Z,8.97
2019-02-28T15:03:22.787Z,7.00
2019-02-28T15:06:04.121Z,7.47
2019-02-28T15:08:47.362Z,43.53
2019-02-28T15:11:27.186Z,21.43
2019-02-28T15:14:09.559Z,12.67
2019-02-28T15:16:51.206Z,10.70
2019-02-28T15:19:32.585Z,12.67
2019-02-28T15:22:17.835Z,8.57
2019-02-28T15:24:59.481Z,9.17
2019-02-28T15:27:41.098Z,10.80
2019-02-28T15:30:21.923Z,9.07
2019-02-28T15:33:10.357Z,8.97
2019-02-28T15:35:51.108Z,10.07
2019-02-28T15:38:30.704Z,12.43
2019-02-28T15:41:12.571Z,7.70
2019-02-28T15:43:54.345Z,8.27
2019-02-28T15:46:36.039Z,9.37
2019-02-28T15:49:17.266Z,8.63
2019-02-28T15:51:58.073Z,8.63
2019-02-28T15:54:39.438Z,8.17
2019-02-28T15:57:20.757Z,11.37
2019-02-28T16:00:02.151Z,6.83
2019-02-28T16:02:43.548Z,9.50
2019-02-28T16:05:24.995Z,8.13
2019-02-28T16:08:10.293Z,8.67
2019-02-28T16:10:53.460Z,10.17
2019-02-28T16:13:32.370Z,7.43
2019-02-28T16:16:13.582Z,8.03
2019-02-28T16:18:55.673Z,17.40
2019-02-28T16:21:38.130Z,17.70
2019-02-28T16:24:19.043Z,16.60
2019-02-28T16:27:00.480Z,9.23
2019-02-28T16:29:42.075Z,16.53
2019-02-28T16:32:23.547Z,20.77
2019-02-28T16:35:04.603Z,14.37
2019-02-28T16:37:46.354Z,17.17
2019-02-28T16:40:27.554Z,14.33
2019-02-28T16:43:08.970Z,22.03
2019-02-28T16:45:41.963Z,19.00
2019-02-28T16:48:12.632Z,19.13
2019-02-28T16:50:42.180Z,12.10
2019-02-28T16:53:23.827Z,19.83
2019-02-28T16:56:05.719Z,16.70
2019-02-28T16:58:35.918Z,13.60
2019-02-28T17:01:24.435Z,10.60
2019-02-28T17:04:06.999Z,11.53
2019-02-28T17:06:47.930Z,11.40
2019-02-28T17:09:47.821Z,13.80
2019-02-28T17:12:50.657Z,11.40
2019-02-28T17:18:29.673Z,11.18
2019-02-28T17:24:08.724Z,10.27
2019-02-28T17:27:08.242Z,18.57
2019-02-28T17:30:02.804Z,18.23
2019-02-28T17:32:44.972Z,20.07
2019-02-28T17:38:37.308Z,18.93
2019-02-28T17:41:18.376Z,15.63
2019-02-28T17:44:01.717Z,17.37
2019-02-28T17:46:46.511Z,16.50
2019-02-28T17:49:27.098Z,14.77
2019-02-28T17:52:08.858Z,11.83
2019-02-28T17:54:49.960Z,17.30
2019-02-28T17:57:30.851Z,14.03
2019-02-28T18:00:12.957Z,11.27
2019-02-28T18:02:55.543Z,10.33
2019-02-28T18:05:37.339Z,12.27
2019-02-28T18:08:18.577Z,12.53
2019-02-28T18:11:00.103Z,10.77
2019-02-28T18:13:41.726Z,14.60
2019-02-28T18:16:23.234Z,14.00
2019-02-28T18:19:04.670Z,15.57
2019-02-28T18:21:46.340Z,11.23
2019-02-28T18:24:27.609Z,9.83
2019-02-28T18:27:11.757Z,9.70
2019-02-28T18:29:51.998Z,12.87
2019-02-28T18:32:34.229Z,10.80
2019-02-28T18:35:15.865Z,12.73
2019-02-28T18:37:57.370Z,11.17
2019-02-28T18:40:40.306Z,13.13
2019-02-28T18:43:23.910Z,11.77
2019-02-28T18:46:04.897Z,12.40
2019-02-28T18:48:46.490Z,19.00
2019-02-28T18:51:28.037Z,15.27
2019-02-28T18:54:09.269Z,12.57
2019-02-28T18:56:53.088Z,13.10
2019-02-28T18:59:33.891Z,11.20
2019-02-28T19:02:15.196Z,15.00
2019-02-28T19:04:56.734Z,12.00
2019-02-28T19:07:37.921Z,11.50
2019-02-28T19:10:19.247Z,12.57
2019-02-28T19:13:00.640Z,14.30
2019-02-28T19:15:42.199Z,13.67
2019-02-28T19:18:23.591Z,13.27
2019-02-28T19:21:04.826Z,13.87
2019-02-28T19:23:46.019Z,12.40
2019-02-28T19:26:27.391Z,13.23
2019-02-28T19:29:09.048Z,14.03
2019-02-28T19:31:38.973Z,13.27
2019-02-28T19:34:27.616Z,12.27
2019-02-28T19:37:16.455Z,13.27
2019-02-28T19:39:57.396Z,15.77
2019-02-28T19:42:37.999Z,12.83
2019-02-28T19:45:18.944Z,13.57
2019-02-28T19:48:01.223Z,13.77
2019-02-28T19:50:42.624Z,14.97
2019-02-28T19:53:24.116Z,13.97
2019-02-28T19:56:05.062Z,16.23
2019-02-28T19:58:46.422Z,13.57
2019-02-28T20:01:27.975Z,13.03
2019-02-28T20:04:08.913Z,14.00
2019-02-28T20:06:48.585Z,15.27
2019-02-28T20:09:37.014Z,14.33
2019-02-28T20:12:06.630Z,16.87
2019-02-28T20:14:55.249Z,16.67
2019-02-28T20:17:36.528Z,15.77
2019-02-28T20:20:18.231Z,15.23
2019-02-28T20:22:59.547Z,14.93
2019-02-28T20:25:40.897Z,17.40
2019-02-28T20:28:21.965Z,14.47
2019-02-28T20:31:03.572Z,16.10
2019-02-28T20:33:44.447Z,16.40
2019-02-28T20:36:24.222Z,17.03
2019-02-28T20:39:13.085Z,15.10
2019-02-28T20:41:54.584Z,15.93
2019-02-28T20:44:24.098Z,19.57
2019-02-28T20:46:53.585Z,15.43
2019-02-28T20:49:42.100Z,16.83
2019-02-28T20:52:23.517Z,15.47
2019-02-28T20:55:04.974Z,15.87
2019-02-28T20:57:46.395Z,16.80
2019-02-28T21:00:28.504Z,16.87
2019-02-28T21:03:09.746Z,16.03
2019-02-28T21:05:50.989Z,16.33
2019-02-28T21:08:31.989Z,17.73
2019-02-28T21:11:12.596Z,17.77
2019-02-28T21:13:53.376Z,16.20
2019-02-28T21:16:34.277Z,16.40
2019-02-28T21:19:14.929Z,16.87
2019-02-28T21:21:56.387Z,16.17
2019-02-28T21:24:37.867Z,15.63
2019-02-28T21:27:18.482Z,17.77
2019-02-28T21:29:59.602Z,15.33
2019-02-28T21:32:41.090Z,14.30
2019-02-28T21:35:20.617Z,14.70
2019-02-28T21:38:09.100Z,16.63
2019-02-28T21:40:50.114Z,15.53
2019-02-28T21:43:31.418Z,16.70
2019-02-28T21:46:12.874Z,15.67
2019-02-28T21:48:54.417Z,17.07
2019-02-28T21:51:35.126Z,17.97
2019-02-28T21:54:15.799Z,17.87
2019-02-28T21:56:56.960Z,18.60
2019-02-28T21:59:26.388Z,17.73
2019-02-28T22:02:15.242Z,17.80
2019-02-28T22:05:03.689Z,21.40
2019-02-28T22:07:44.680Z,18.93
2019-02-28T22:10:25.806Z,18.63
2019-02-28T22:13:07.148Z,18.77
2019-02-28T22:15:36.603Z,19.53
2019-02-28T22:18:25.089Z,20.37
2019-02-28T22:20:54.457Z,21.20
2019-02-28T22:23:42.991Z,18.87
2019-02-28T22:26:24.091Z,20.00
2019-02-28T22:29:04.771Z,22.23
2019-02-28T22:32:04.365Z,21.03
2019-02-28T22:35:04.666Z,17.97
2019-02-28T22:37:45.380Z,18.10
2019-02-28T22:40:26.821Z,20.53
2019-02-28T22:43:07.487Z,20.53
2019-02-28T22:45:48.466Z,20.97
2019-02-28T22:48:29.539Z,18.97
2019-02-28T22:51:10.829Z,19.93
2019-02-28T22:53:51.951Z,20.53
2019-02-28T22:56:33.198Z,17.67
2019-02-28T22:59:14.758Z,18.37
2019-02-28T23:01:55.822Z,19.93
2019-02-28T23:04:37.786Z,18.40
2019-02-28T23:07:19.071Z,19.37
2019-02-28T23:10:00.364Z,18.43
2019-02-28T23:12:41.512Z,17.50
2019-02-28T23:15:22.630Z,19.43
2019-02-28T23:18:04.092Z,18.07
2019-02-28T23:20:44.653Z,19.37
2019-02-28T23:23:25.293Z,19.97
2019-02-28T23:26:06.545Z,19.43
2019-02-28T23:28:47.974Z,18.93
2019-02-28T23:31:28.632Z,19.27
2019-02-28T23:34:09.303Z,18.93
2019-02-28T23:36:50.812Z,19.57
2019-02-28T23:39:31.635Z,22.53
2019-02-28T23:42:12.947Z,21.00
2019-02-28T23:44:53.785Z,20.87
2019-02-28T23:47:33.260Z,20.87
2019-02-28T23:50:14.814Z,20.93
2019-02-28T23:52:55.881Z,42.33
2019-02-28T23:55:36.497Z,50.67
2019-02-28T23:58:17.037Z,33.50
